Time;durP1;ratioP1;P1;durP2;ratioP2;P2;SDS_P1;SDS_P2;PMS_P1;PMS_P2;Temp;Humidity;BMP_temperature;BMP_pressure;BME280_temperature;BME280_humidity;BME280_pressure;Samples;Min_cycle;Max_cycle;Signal;HPM_P1;HPM_P2
2023/06/03 00:01:58;;;;;;;8.40;0.88;;;11.90;99.90;;;;;;5034226;28;20048;-80
2023/06/03 00:04:24;;;;;;;5.22;0.80;;;11.90;99.90;;;;;;5034980;28;20033;-80
2023/06/03 00:06:49;;;;;;;5.03;0.65;;;11.90;99.90;;;;;;5031505;28;20037;-80
2023/06/03 00:09:15;;;;;;;4.60;1.08;;;11.80;99.90;;;;;;5030658;28;20041;-80
2023/06/03 00:11:42;;;;;;;1.73;0.60;;;11.80;99.90;;;;;;5031213;28;20037;-79
2023/06/03 00:14:08;;;;;;;9.32;0.70;;;11.70;99.90;;;;;;5032741;28;20048;-79
2023/06/03 00:16:33;;;;;;;2.45;0.70;;;11.70;99.90;;;;;;5031136;28;20053;-80
2023/06/03 00:18:59;;;;;;;0.90;0.88;;;11.70;99.90;;;;;;5028862;28;20029;-80
2023/06/03 00:21:25;;;;;;;4.88;0.80;;;11.70;99.90;;;;;;5031150;28;20120;-80
2023/06/03 00:23:50;;;;;;;3.45;0.82;;;11.60;99.90;;;;;;5032587;28;20059;-80
2023/06/03 00:26:16;;;;;;;3.75;0.60;;;11.60;99.90;;;;;;5032622;28;20032;-79
2023/06/03 00:28:42;;;;;;;2.88;0.60;;;11.50;99.90;;;;;;5030457;28;20128;-80
2023/06/03 00:31:08;;;;;;;5.00;0.50;;;11.50;99.90;;;;;;5032015;28;20285;-80
2023/06/03 00:33:33;;;;;;;3.65;0.40;;;11.50;99.90;;;;;;5030194;28;20051;-80
2023/06/03 00:35:59;;;;;;;2.75;0.40;;;11.40;99.90;;;;;;5031630;28;20049;-80
2023/06/03 00:38:24;;;;;;;2.63;1.08;;;11.40;99.90;;;;;;5029126;28;20056;-79
2023/06/03 00:40:50;;;;;;;2.35;0.60;;;11.50;99.90;;;;;;5031349;28;20103;-80
2023/06/03 00:43:15;;;;;;;1.15;0.60;;;11.40;99.90;;;;;;5030985;28;20203;-80
2023/06/03 00:45:41;;;;;;;3.70;0.45;;;11.30;99.90;;;;;;5024153;28;20046;-80
2023/06/03 00:48:07;;;;;;;2.83;0.60;;;11.30;99.90;;;;;;5030260;28;20061;-80
2023/06/03 00:50:33;;;;;;;1.30;0.40;;;11.30;99.90;;;;;;5032501;28;20053;-80
2023/06/03 00:53:01;;;;;;;1.77;0.30;;;11.30;99.90;;;;;;5030061;28;20264;-80
2023/06/03 00:55:26;;;;;;;5.22;0.80;;;11.20;99.90;;;;;;5031802;28;20053;-80
2023/06/03 00:57:52;;;;;;;1.45;0.40;;;11.20;99.90;;;;;;5029494;28;20037;-80
2023/06/03 01:00:18;;;;;;;1.33;0.55;;;11.20;99.90;;;;;;5032544;28;20546;-79
2023/06/03 01:02:44;;;;;;;3.42;0.40;;;11.20;99.90;;;;;;5031565;28;20042;-79
2023/06/03 01:05:11;;;;;;;5.15;0.75;;;11.10;99.90;;;;;;5032204;28;20196;-80
2023/06/03 01:07:51;;;;;;;2.38;0.68;;;11.10;99.90;;;;;;5028477;28;20246;-80
2023/06/03 01:10:28;;;;;;;2.20;0.40;;;11.00;99.90;;;;;;5032259;28;20515;-78
2023/06/03 01:13:04;;;;;;;0.80;0.40;;;10.90;99.90;;;;;;5030879;28;20380;-79
2023/06/03 01:15:33;;;;;;;2.05;0.63;;;10.80;99.90;;;;;;5032043;28;20096;-78
2023/06/03 01:18:03;;;;;;;1.85;0.50;;;10.80;99.90;;;;;;5030519;28;20495;-79
2023/06/03 01:20:29;;;;;;;1.52;0.45;;;10.70;99.90;;;;;;5018187;28;20037;-79
2023/06/03 01:23:16;;;;;;;1.90;0.50;;;10.70;99.90;;;;;;5034079;28;20041;-79
2023/06/03 01:25:41;;;;;;;;;;;10.60;99.90;;;;;;5037916;28;20057;-79
2023/06/03 01:28:07;;;;;;;3.00;0.60;;;10.50;99.90;;;;;;5034358;28;19991;-80
2023/06/03 01:30:33;;;;;;;3.28;0.80;;;10.60;99.90;;;;;;5037538;28;20396;-79
2023/06/03 01:32:59;;;;;;;7.05;0.60;;;10.50;99.90;;;;;;5050290;28;20049;-78
2023/06/03 01:35:25;;;;;;;2.30;0.40;;;10.40;99.90;;;;;;5035060;28;20411;-78
2023/06/03 01:37:51;;;;;;;0.80;0.32;;;10.40;99.90;;;;;;5033486;28;20123;-79
2023/06/03 01:40:18;;;;;;;2.70;0.40;;;10.40;99.90;;;;;;5035717;28;20061;-79
2023/06/03 01:42:44;;;;;;;4.63;0.40;;;10.20;99.90;;;;;;5035709;28;20045;-79
2023/06/03 01:45:10;;;;;;;1.88;0.60;;;10.20;99.90;;;;;;5036767;28;20116;-79
2023/06/03 01:47:36;;;;;;;2.75;1.10;;;10.20;99.90;;;;;;5033912;28;20038;-80
2023/06/03 01:50:02;;;;;;;2.92;0.95;;;10.10;99.90;;;;;;5035252;28;20496;-79
2023/06/03 01:52:27;;;;;;;2.55;0.98;;;10.10;99.90;;;;;;5036650;28;20064;-79
2023/06/03 01:54:53;;;;;;;3.97;0.80;;;10.00;99.90;;;;;;5035644;28;20408;-80
2023/06/03 01:57:18;;;;;;;9.27;1.05;;;9.90;99.90;;;;;;5035300;28;20042;-79
2023/06/03 01:59:44;;;;;;;1.52;0.73;;;9.90;99.90;;;;;;5034712;28;20041;-79
2023/06/03 02:02:09;;;;;;;2.00;0.77;;;9.90;99.90;;;;;;5033920;28;20044;-79
2023/06/03 02:04:35;;;;;;;4.28;1.10;;;9.90;99.90;;;;;;5036324;28;20487;-80
2023/06/03 02:07:01;;;;;;;4.88;0.60;;;9.90;99.90;;;;;;5034438;28;20033;-80
2023/06/03 02:09:28;;;;;;;1.65;0.50;;;9.80;99.90;;;;;;5033110;28;20073;-79
2023/06/03 02:11:55;;;;;;;3.60;0.68;;;9.80;99.90;;;;;;5036406;28;20120;-78
2023/06/03 02:14:21;;;;;;;3.60;0.50;;;9.80;99.90;;;;;;5036211;28;20045;-80
2023/06/03 02:16:48;;;;;;;1.98;0.47;;;9.70;99.90;;;;;;5046717;28;20053;-79
2023/06/03 02:19:16;;;;;;;3.95;0.60;;;9.70;99.90;;;;;;5033358;28;20097;-80
2023/06/03 02:21:42;;;;;;;1.27;0.65;;;9.60;99.90;;;;;;5032258;28;20045;-80
2023/06/03 02:24:08;;;;;;;4.00;1.17;;;9.60;99.90;;;;;;5035311;28;20038;-78
2023/06/03 02:26:35;;;;;;;4.75;0.35;;;9.60;99.90;;;;;;5035791;28;20038;-80
2023/06/03 02:29:02;;;;;;;3.13;0.45;;;9.50;99.90;;;;;;5029952;28;20048;-79
2023/06/03 02:31:29;;;;;;;3.33;0.60;;;9.50;99.90;;;;;;5035810;28;20043;-78
2023/06/03 02:33:55;;;;;;;6.05;0.40;;;9.50;99.90;;;;;;5033075;28;20528;-79
2023/06/03 02:36:20;;;;;;;5.03;0.68;;;9.40;99.90;;;;;;5032343;28;20044;-80
2023/06/03 02:38:47;;;;;;;1.48;0.60;;;9.50;99.90;;;;;;5032908;28;20049;-80
2023/06/03 02:41:13;;;;;;;1.60;0.40;;;9.50;99.90;;;;;;5034686;28;20121;-78
2023/06/03 02:43:41;;;;;;;4.53;0.60;;;9.40;99.90;;;;;;5032062;28;20049;-80
2023/06/03 02:46:06;;;;;;;4.25;0.40;;;9.40;99.90;;;;;;5034328;28;20041;-79
2023/06/03 02:48:32;;;;;;;1.10;0.43;;;9.30;99.90;;;;;;5029772;28;20037;-80
2023/06/03 02:50:58;;;;;;;1.67;0.60;;;9.40;99.90;;;;;;5017612;28;20113;-80
2023/06/03 02:53:23;;;;;;;0.65;0.38;;;9.40;99.90;;;;;;5033398;28;20127;-80
2023/06/03 02:55:49;;;;;;;2.85;0.60;;;9.40;99.90;;;;;;5032869;28;20040;-80
2023/06/03 02:58:15;;;;;;;1.83;0.60;;;9.30;99.90;;;;;;5048487;28;20037;-79
2023/06/03 03:00:41;;;;;;;2.13;0.70;;;9.30;99.90;;;;;;5033452;28;20052;-80
2023/06/03 03:03:07;;;;;;;1.83;0.52;;;9.30;99.90;;;;;;5032818;28;20091;-80
2023/06/03 03:05:34;;;;;;;3.15;0.40;;;9.30;99.90;;;;;;5031981;28;20041;-79
2023/06/03 03:07:59;;;;;;;2.55;0.40;;;9.20;99.90;;;;;;5031743;28;20045;-80
2023/06/03 03:10:25;;;;;;;4.20;0.55;;;9.20;99.90;;;;;;5032463;28;20051;-79
2023/06/03 03:12:51;;;;;;;1.92;0.40;;;9.10;99.90;;;;;;5032013;28;20041;-79
2023/06/03 03:15:16;;;;;;;1.45;0.50;;;9.10;99.90;;;;;;5033531;28;20067;-79
2023/06/03 03:17:42;;;;;;;2.20;0.52;;;9.00;99.90;;;;;;5035434;28;20041;-80
2023/06/03 03:20:08;;;;;;;1.23;0.40;;;9.00;99.90;;;;;;5033613;28;20057;-80
2023/06/03 03:22:39;;;;;;;1.10;0.45;;;8.90;99.90;;;;;;5032944;28;20037;-80
2023/06/03 03:25:05;;;;;;;3.20;0.60;;;8.90;99.90;;;;;;5030646;28;20041;-78
2023/06/03 03:27:30;;;;;;;3.03;0.45;;;8.90;99.90;;;;;;5032745;28;20052;-79
2023/06/03 03:29:59;;;;;;;2.15;0.50;;;8.90;99.90;;;;;;5034595;28;20400;-80
2023/06/03 03:32:24;;;;;;;1.38;0.40;;;8.90;99.90;;;;;;5035539;28;20045;-80
2023/06/03 03:35:13;;;;;;;2.58;0.60;;;9.00;99.90;;;;;;5032410;28;20060;-80
2023/06/03 03:37:39;;;;;;;2.58;0.55;;;9.00;99.90;;;;;;5032613;28;20659;-79
2023/06/03 03:40:18;;;;;;;3.42;0.70;;;9.00;99.90;;;;;;5031367;28;20034;-80
2023/06/03 03:42:52;;;;;;;5.40;0.55;;;9.00;99.90;;;;;;5031218;28;20128;-80
2023/06/03 03:45:20;;;;;;;1.90;0.47;;;9.00;99.90;;;;;;5033365;28;20045;-79
2023/06/03 03:47:50;;;;;;;1.63;0.60;;;9.00;99.90;;;;;;5034139;28;20042;-80
2023/06/03 03:50:39;;;;;;;4.82;0.60;;;9.00;99.90;;;;;;5033528;28;20048;-79
2023/06/03 03:53:10;;;;;;;2.92;0.40;;;9.00;99.90;;;;;;5035377;28;20079;-80
2023/06/03 03:55:46;;;;;;;2.90;0.82;;;9.00;99.90;;;;;;5032008;28;20045;-80
2023/06/03 03:58:42;;;;;;;1.52;0.40;;;9.00;99.90;;;;;;5029321;28;20065;-79
2023/06/03 04:01:23;;;;;;;3.67;0.47;;;9.00;99.90;;;;;;5030828;28;20053;-80
2023/06/03 04:03:55;;;;;;;4.20;0.65;;;9.10;99.90;;;;;;5034216;28;20037;-79
2023/06/03 04:06:36;;;;;;;2.22;0.52;;;9.10;99.90;;;;;;5032571;28;20120;-78
2023/06/03 04:09:05;;;;;;;1.77;0.60;;;9.10;99.90;;;;;;5031049;28;20099;-80
2023/06/03 04:11:36;;;;;;;1.83;0.60;;;9.30;99.90;;;;;;5029536;28;20041;-80
2023/06/03 04:14:03;;;;;;;2.05;0.45;;;9.50;99.90;;;;;;5029389;28;20099;-79
2023/06/03 04:16:47;;;;;;;4.25;0.63;;;10.30;99.90;;;;;;5032196;28;20438;-78
2023/06/03 04:19:18;;;;;;;4.72;0.65;;;11.60;99.90;;;;;;5028467;28;20065;-80
2023/06/03 04:21:45;;;;;;;1.95;0.50;;;13.00;99.90;;;;;;5030693;28;20033;-80
2023/06/03 04:24:11;;;;;;;1.60;0.60;;;14.30;99.90;;;;;;5031032;28;20099;-80
2023/06/03 04:26:37;;;;;;;6.00;0.47;;;15.00;99.90;;;;;;5030370;28;20038;-79
2023/06/03 04:29:03;;;;;;;3.15;0.50;;;15.90;99.90;;;;;;5031035;28;20041;-80
2023/06/03 04:31:28;;;;;;;1.92;0.60;;;16.50;99.80;;;;;;5032394;28;20049;-79
2023/06/03 04:33:54;;;;;;;1.73;0.50;;;17.00;98.70;;;;;;5031784;28;20048;-80
2023/06/03 04:36:19;;;;;;;3.72;0.63;;;17.50;98.00;;;;;;5029437;28;20052;-79
2023/06/03 04:38:45;;;;;;;2.42;0.73;;;18.30;97.80;;;;;;5030632;28;20103;-80
2023/06/03 04:41:12;;;;;;;3.03;0.65;;;18.40;96.60;;;;;;5032744;28;20038;-80
2023/06/03 04:43:40;;;;;;;1.83;0.77;;;18.40;96.40;;;;;;5030616;28;20056;-80
2023/06/03 04:46:09;;;;;;;3.45;0.60;;;18.40;96.20;;;;;;5026278;28;20037;-80
2023/06/03 04:48:36;;;;;;;2.13;0.40;;;18.60;95.80;;;;;;5026512;28;20050;-79
2023/06/03 04:51:06;;;;;;;5.65;0.70;;;18.20;95.30;;;;;;5027200;28;20045;-80
2023/06/03 04:53:32;;;;;;;3.22;0.73;;;17.50;95.30;;;;;;5034054;28;20040;-80
2023/06/03 04:55:58;;;;;;;2.30;0.60;;;17.40;95.60;;;;;;5036557;28;20630;-80
2023/06/03 04:58:24;;;;;;;1.13;0.60;;;17.30;95.90;;;;;;5034708;28;20124;-79
2023/06/03 05:00:49;;;;;;;3.65;1.15;;;17.90;95.80;;;;;;5035290;28;20057;-80
2023/06/03 05:03:16;;;;;;;5.13;0.43;;;17.90;95.40;;;;;;5033377;28;20068;-79
2023/06/03 05:05:43;;;;;;;2.88;0.70;;;18.00;95.20;;;;;;5037651;28;20030;-80
2023/06/03 05:08:12;;;;;;;2.00;0.75;;;17.20;95.30;;;;;;5035519;28;20128;-80
2023/06/03 05:10:38;;;;;;;1.63;0.47;;;16.50;95.40;;;;;;5034287;28;20041;-80
2023/06/03 05:13:06;;;;;;;3.95;0.70;;;15.90;96.00;;;;;;5036203;28;20064;-81
2023/06/03 05:15:33;;;;;;;1.92;0.88;;;15.30;96.70;;;;;;5035181;28;20072;-80
2023/06/03 05:18:02;;;;;;;1.63;0.55;;;15.20;97.10;;;;;;5032416;28;20127;-81
2023/06/03 05:20:29;;;;;;;3.22;0.90;;;16.40;97.30;;;;;;5035063;28;20049;-80
2023/06/03 05:22:55;;;;;;;2.72;0.68;;;18.00;96.40;;;;;;5035273;28;20033;-79
2023/06/03 05:25:20;;;;;;;1.92;0.70;;;19.00;95.50;;;;;;5035213;28;20052;-81
2023/06/03 05:27:46;;;;;;;2.00;1.00;;;19.80;94.90;;;;;;5036796;28;20041;-80
2023/06/03 05:30:12;;;;;;;0.85;0.50;;;19.50;93.80;;;;;;5037063;28;20034;-80
2023/06/03 05:32:39;;;;;;;3.47;0.68;;;19.10;94.40;;;;;;5037604;28;20116;-80
2023/06/03 05:35:05;;;;;;;1.70;0.47;;;18.60;94.20;;;;;;5034613;28;20450;-80
2023/06/03 05:37:31;;;;;;;3.05;0.82;;;18.30;94.60;;;;;;5034335;28;20037;-80
2023/06/03 05:39:56;;;;;;;1.40;0.40;;;17.80;94.40;;;;;;5035469;28;20480;-79
2023/06/03 05:42:22;;;;;;;3.53;0.55;;;17.60;94.80;;;;;;5035259;28;20781;-80
2023/06/03 05:44:47;;;;;;;2.03;0.73;;;17.30;94.90;;;;;;5036562;28;20039;-80
2023/06/03 05:47:13;;;;;;;2.35;0.35;;;17.20;94.40;;;;;;5027209;28;20570;-79
2023/06/03 05:49:38;;;;;;;2.30;0.50;;;17.00;95.10;;;;;;5029817;28;20111;-79
2023/06/03 05:52:04;;;;;;;2.50;0.40;;;16.90;94.90;;;;;;5033286;28;20073;-80
2023/06/03 05:54:30;;;;;;;3.33;0.45;;;16.80;95.50;;;;;;5032544;28;20080;-80
2023/06/03 05:56:57;;;;;;;2.95;1.02;;;17.00;95.90;;;;;;5031397;28;20042;-81
2023/06/03 05:59:22;;;;;;;2.75;0.68;;;17.10;95.40;;;;;;5028708;28;20041;-80
2023/06/03 06:01:48;;;;;;;2.05;0.60;;;17.10;95.20;;;;;;5031602;28;20041;-79
2023/06/03 06:04:14;;;;;;;2.58;0.35;;;17.40;95.20;;;;;;5035226;28;20067;-78
2023/06/03 06:06:39;;;;;;;2.72;0.55;;;17.50;94.40;;;;;;5030157;28;20498;-78
2023/06/03 06:09:05;;;;;;;2.75;0.30;;;17.40;94.10;;;;;;5028658;28;20099;-79
2023/06/03 06:11:31;;;;;;;3.67;0.52;;;17.50;94.20;;;;;;5036580;28;20060;-80
2023/06/03 06:13:56;;;;;;;2.00;0.45;;;17.40;93.60;;;;;;5035215;28;20045;-79
2023/06/03 06:16:22;;;;;;;3.67;0.77;;;17.40;94.00;;;;;;5029085;28;20049;-79
2023/06/03 06:18:48;;;;;;;2.00;0.50;;;17.60;94.00;;;;;;5033469;28;20056;-79
2023/06/03 06:21:15;;;;;;;5.13;0.60;;;17.80;94.10;;;;;;5034760;28;20068;-79
2023/06/03 06:23:44;;;;;;;6.82;0.60;;;17.70;94.40;;;;;;5035519;28;20045;-79
2023/06/03 06:26:14;;;;;;;1.25;0.50;;;17.90;94.30;;;;;;5035202;28;20125;-80
2023/06/03 06:28:41;;;;;;;3.15;0.57;;;18.10;94.60;;;;;;5033856;28;20041;-79
2023/06/03 06:31:06;;;;;;;1.45;0.45;;;18.00;94.70;;;;;;5030714;28;20045;-80
2023/06/03 06:33:35;;;;;;;4.35;0.50;;;17.90;93.30;;;;;;5030083;28;20099;-80
2023/06/03 06:36:27;;;;;;;4.25;0.50;;;17.80;93.90;;;;;;5032719;28;20029;-80
2023/06/03 06:38:53;;;;;;;2.42;0.47;;;17.90;94.10;;;;;;5032909;28;20048;-81
2023/06/03 06:41:19;;;;;;;1.98;0.40;;;17.80;93.20;;;;;;5033862;28;20101;-81
2023/06/03 06:43:45;;;;;;;1.48;0.55;;;17.80;93.30;;;;;;5034889;28;20096;-81
2023/06/03 06:46:11;;;;;;;0.73;0.30;;;17.60;93.50;;;;;;5031768;28;20052;-81
2023/06/03 06:48:38;;;;;;;7.60;0.50;;;17.60;94.00;;;;;;5030349;28;20139;-81
2023/06/03 06:51:04;;;;;;;5.18;0.50;;;17.50;93.50;;;;;;5030473;28;20124;-83
2023/06/03 06:53:32;;;;;;;1.38;0.47;;;17.60;93.70;;;;;;5035264;28;20046;-83
2023/06/03 06:56:08;;;;;;;1.77;0.40;;;17.80;94.00;;;;;;5038540;28;20037;-81
2023/06/03 06:58:36;;;;;;;6.30;0.57;;;17.60;93.60;;;;;;5035755;28;20064;-83
2023/06/03 07:01:05;;;;;;;3.47;0.30;;;17.70;93.90;;;;;;5033392;28;20064;-83
2023/06/03 07:03:32;;;;;;;1.50;0.50;;;17.70;94.30;;;;;;5030935;28;20048;-82
2023/06/03 07:05:58;;;;;;;5.55;0.93;;;17.90;93.60;;;;;;5033500;28;20048;-81
2023/06/03 07:08:24;;;;;;;1.67;0.40;;;17.90;92.90;;;;;;5032653;28;20041;-82
2023/06/03 07:10:51;;;;;;;1.63;0.50;;;18.20;93.30;;;;;;5033463;28;20030;-81
2023/06/03 07:13:17;;;;;;;1.70;0.68;;;18.30;92.60;;;;;;5039011;28;20033;-81
2023/06/03 07:15:43;;;;;;;2.72;0.35;;;18.40;93.40;;;;;;5035157;28;20454;-81
2023/06/03 07:18:10;;;;;;;1.75;0.75;;;18.60;93.50;;;;;;5034077;28;20045;-81
2023/06/03 07:20:39;;;;;;;2.65;0.50;;;18.60;93.30;;;;;;5032106;28;20084;-82
2023/06/03 07:23:35;;;;;;;2.00;0.50;;;18.40;92.80;;;;;;5033516;28;20049;-80
2023/06/03 07:26:00;;;;;;;1.52;0.50;;;18.20;92.90;;;;;;5018716;28;20064;-81
2023/06/03 07:28:30;;;;;;;4.50;0.60;;;18.20;93.00;;;;;;5028782;28;20091;-80
2023/06/03 07:30:58;;;;;;;0.68;0.38;;;18.40;93.40;;;;;;5031470;28;20095;-81
2023/06/03 07:33:29;;;;;;;1.13;0.40;;;18.50;93.00;;;;;;5031605;28;20118;-82
2023/06/03 07:35:57;;;;;;;1.38;0.55;;;18.40;91.10;;;;;;5032585;28;20053;-81
2023/06/03 07:38:37;;;;;;;1.27;0.43;;;18.40;91.50;;;;;;5033940;28;20034;-81
2023/06/03 07:41:07;;;;;;;1.55;0.40;;;18.50;91.50;;;;;;5033986;28;20039;-81
2023/06/03 07:43:38;;;;;;;1.77;0.38;;;18.60;92.30;;;;;;5031028;28;20042;-81
2023/06/03 07:46:05;;;;;;;1.75;0.82;;;18.90;92.30;;;;;;5034179;28;20041;-81
2023/06/03 07:48:33;;;;;;;2.47;0.30;;;19.00;92.20;;;;;;5036327;28;20045;-81
2023/06/03 07:50:58;;;;;;;2.60;0.30;;;19.20;92.50;;;;;;5035233;28;20163;-82
2023/06/03 07:53:25;;;;;;;1.50;0.40;;;19.40;91.30;;;;;;5035905;28;20048;-82
2023/06/03 07:55:51;;;;;;;2.55;0.50;;;19.30;91.80;;;;;;5033495;28;20038;-82
2023/06/03 07:58:17;;;;;;;3.72;0.47;;;19.20;91.50;;;;;;5031491;28;20411;-81
2023/06/03 08:00:45;;;;;;;1.77;0.40;;;19.20;91.70;;;;;;5017336;28;20495;-82
2023/06/03 08:03:15;;;;;;;2.15;0.47;;;18.80;91.00;;;;;;5035623;28;20044;-81
2023/06/03 08:05:41;;;;;;;1.25;0.52;;;18.80;92.20;;;;;;5032686;28;20042;-81
2023/06/03 08:08:10;;;;;;;2.97;0.40;;;18.80;92.10;;;;;;5033856;28;20041;-82
2023/06/03 08:10:36;;;;;;;0.57;0.28;;;18.70;91.90;;;;;;5036864;28;20045;-81
2023/06/03 08:13:02;;;;;;;1.75;0.30;;;18.70;91.90;;;;;;5036570;28;20038;-82
2023/06/03 08:15:32;;;;;;;1.05;0.30;;;18.60;91.30;;;;;;5033210;28;20319;-81
2023/06/03 08:17:58;;;;;;;1.38;0.40;;;18.80;91.30;;;;;;5035774;28;20053;-81
2023/06/03 08:20:26;;;;;;;3.42;0.65;;;18.80;90.70;;;;;;5031596;28;20550;-81
2023/06/03 08:22:53;;;;;;;3.55;0.43;;;19.00;91.70;;;;;;5033804;28;20048;-81
2023/06/03 08:25:19;;;;;;;2.60;0.32;;;19.40;91.70;;;;;;5049704;28;20033;-81
2023/06/03 08:27:45;;;;;;;3.00;0.63;;;19.40;90.70;;;;;;5033856;28;20048;-81
2023/06/03 08:30:14;;;;;;;2.95;0.50;;;19.30;91.40;;;;;;5033946;28;20052;-81
2023/06/03 08:32:41;;;;;;;1.60;0.50;;;19.60;91.40;;;;;;5032514;28;20076;-83
2023/06/03 08:35:11;;;;;;;0.90;0.30;;;19.80;90.50;;;;;;5033963;28;20061;-82
2023/06/03 08:37:37;;;;;;;1.13;0.40;;;19.90;90.30;;;;;;5033463;28;20063;-82
2023/06/03 08:40:08;;;;;;;0.85;0.45;;;19.80;89.20;;;;;;5029103;28;20555;-82
2023/06/03 08:42:47;;;;;;;1.05;0.52;;;19.90;89.60;;;;;;5025981;28;20370;-84
2023/06/03 08:45:21;;;;;;;5.75;0.40;;;19.90;87.10;;;;;;5026406;28;20041;-82
2023/06/03 08:47:57;;;;;;;5.13;0.30;;;19.80;85.60;;;;;;5029855;28;20040;-83
2023/06/03 08:50:24;;;;;;;1.00;0.40;;;19.50;85.60;;;;;;5034385;28;20037;-82
2023/06/03 08:52:52;;;;;;;3.85;0.45;;;19.00;83.90;;;;;;5032738;28;20053;-82
2023/06/03 08:55:19;;;;;;;3.25;0.30;;;18.90;85.90;;;;;;5030803;28;20562;-81
2023/06/03 08:58:03;;;;;;;1.88;0.50;;;18.80;85.20;;;;;;5029491;28;20664;-83
2023/06/03 09:00:30;;;;;;;4.68;0.30;;;18.80;83.70;;;;;;5029282;28;20053;-82
2023/06/03 09:02:56;;;;;;;0.57;0.30;;;18.50;84.90;;;;;;5033138;28;20037;-84
2023/06/03 09:05:22;;;;;;;4.20;0.30;;;18.40;86.70;;;;;;5032267;28;20473;-82
2023/06/03 09:07:51;;;;;;;4.40;0.68;;;18.50;85.90;;;;;;5024399;28;20049;-82
2023/06/03 09:10:20;;;;;;;1.10;0.25;;;18.30;85.70;;;;;;5024340;28;20057;-82
2023/06/03 09:12:47;;;;;;;3.08;0.60;;;18.10;85.20;;;;;;5029470;28;20048;-81
2023/06/03 09:15:16;;;;;;;1.67;0.40;;;18.10;87.40;;;;;;5032207;28;20703;-79
2023/06/03 09:17:42;;;;;;;0.82;0.30;;;17.90;85.30;;;;;;5038968;28;20067;-81
2023/06/03 09:20:09;;;;;;;1.00;0.40;;;17.80;85.80;;;;;;5035681;28;20105;-82
2023/06/03 09:22:36;;;;;;;0.55;0.38;;;17.90;85.50;;;;;;5036935;28;20046;-81
2023/06/03 09:25:03;;;;;;;1.75;0.35;;;18.20;85.50;;;;;;5036628;28;20040;-81
2023/06/03 09:27:28;;;;;;;1.27;0.30;;;18.60;86.60;;;;;;5035803;28;20088;-81
2023/06/03 09:29:54;;;;;;;1.60;0.20;;;18.90;88.40;;;;;;5035290;28;20033;-81
2023/06/03 09:32:21;;;;;;;2.17;0.50;;;19.30;87.70;;;;;;5035305;28;20052;-81
2023/06/03 09:34:46;;;;;;;3.10;0.25;;;19.50;85.50;;;;;;5036515;28;20040;-81
2023/06/03 09:37:12;;;;;;;5.85;0.60;;;19.80;87.40;;;;;;5033149;28;20041;-81
2023/06/03 09:39:38;;;;;;;2.95;0.50;;;19.90;85.40;;;;;;5038069;28;20048;-81
2023/06/03 09:42:05;;;;;;;1.80;0.30;;;20.10;87.20;;;;;;5036778;28;20472;-81
2023/06/03 09:44:49;;;;;;;5.10;0.80;;;20.00;85.60;;;;;;5038675;28;20084;-81
2023/06/03 09:47:16;;;;;;;3.30;0.40;;;20.30;84.80;;;;;;5036930;28;20535;-78
2023/06/03 09:50:02;;;;;;;1.23;0.30;;;20.40;85.20;;;;;;5036394;28;20067;-80
2023/06/03 09:52:32;;;;;;;2.22;0.60;;;20.20;84.60;;;;;;5036340;28;20037;-81
2023/06/03 09:55:05;;;;;;;3.13;0.50;;;20.20;85.70;;;;;;5036168;28;20037;-80
2023/06/03 09:57:32;;;;;;;2.83;0.40;;;20.10;83.60;;;;;;5031789;28;20052;-80
2023/06/03 10:00:18;;;;;;;3.25;0.30;;;20.00;84.20;;;;;;5034092;28;20117;-81
2023/06/03 10:02:44;;;;;;;1.63;0.40;;;20.20;85.90;;;;;;5037259;28;20442;-80
2023/06/03 10:05:26;;;;;;;1.30;0.30;;;20.20;83.70;;;;;;5037916;28;20120;-79
2023/06/03 10:07:52;;;;;;;3.13;0.55;;;20.20;83.60;;;;;;5037001;28;20033;-80
2023/06/03 10:10:18;;;;;;;2.47;0.40;;;20.30;86.10;;;;;;5020118;28;20050;-80
2023/06/03 10:12:45;;;;;;;4.45;0.50;;;20.50;85.80;;;;;;5040796;28;20044;-80
2023/06/03 10:15:11;;;;;;;13.45;0.70;;;20.50;83.50;;;;;;5039117;28;20458;-80
2023/06/03 10:17:45;;;;;;;2.28;0.30;;;20.60;83.60;;;;;;5040552;28;20046;-79
2023/06/03 10:20:11;;;;;;;1.50;0.43;;;20.50;81.40;;;;;;5038820;28;20068;-80
2023/06/03 10:22:42;;;;;;;0.38;0.30;;;20.40;83.00;;;;;;5052663;28;20121;-80
2023/06/03 10:25:10;;;;;;;1.65;0.40;;;20.40;84.60;;;;;;5040129;28;20060;-79
2023/06/03 10:27:36;;;;;;;6.78;0.73;;;20.50;83.70;;;;;;5035956;28;20047;-79
2023/06/03 10:30:02;;;;;;;4.63;1.55;;;20.40;82.50;;;;;;5034603;28;20132;-77
2023/06/03 10:32:29;;;;;;;1.50;0.40;;;20.00;80.70;;;;;;5037955;28;20063;-80
2023/06/03 10:34:59;;;;;;;3.60;0.40;;;19.90;81.30;;;;;;5038300;28;20041;-79
2023/06/03 10:37:25;;;;;;;1.02;0.50;;;20.00;82.80;;;;;;5037124;28;20108;-80
2023/06/03 10:39:54;;;;;;;0.73;0.32;;;20.00;82.00;;;;;;5032073;28;20125;-80
2023/06/03 10:42:20;;;;;;;1.45;0.38;;;20.30;84.10;;;;;;5037396;28;20041;-79
2023/06/03 10:44:45;;;;;;;2.05;0.60;;;20.30;83.00;;;;;;5038774;28;20412;-78
2023/06/03 10:47:32;;;;;;;2.15;0.55;;;20.30;82.20;;;;;;5033494;28;20053;-79
2023/06/03 10:50:11;;;;;;;2.05;0.50;;;20.50;85.60;;;;;;5035570;28;20071;-79
2023/06/03 10:52:57;;;;;;;3.13;0.43;;;20.40;81.80;;;;;;5041146;28;20044;-80
2023/06/03 10:56:01;;;;;;;4.63;0.50;;;20.50;85.20;;;;;;5034694;28;20042;-79
2023/06/03 10:58:28;;;;;;;3.50;0.40;;;20.60;82.00;;;;;;5037176;28;20073;-80
2023/06/03 11:00:58;;;;;;;0.68;0.20;;;20.60;80.30;;;;;;5035807;28;20053;-78
2023/06/03 11:03:29;;;;;;;1.15;0.70;;;20.30;80.20;;;;;;5037659;28;20053;-80
2023/06/03 11:06:28;;;;;;;2.80;0.40;;;20.50;83.10;;;;;;5033663;28;20128;-79
2023/06/03 11:09:12;;;;;;;6.97;0.50;;;20.60;83.20;;;;;;5036947;28;20125;-80
2023/06/03 11:11:41;;;;;;;1.40;0.30;;;20.60;82.20;;;;;;5031792;28;20572;-79
2023/06/03 11:14:07;;;;;;;2.95;0.50;;;20.90;84.90;;;;;;5037189;28;20068;-80
2023/06/03 11:16:57;;;;;;;4.82;0.40;;;20.90;81.40;;;;;;5035605;28;20047;-80
2023/06/03 11:19:45;;;;;;;3.00;0.40;;;20.80;82.00;;;;;;5033589;28;20041;-79
2023/06/03 11:22:29;;;;;;;7.20;0.60;;;21.00;83.00;;;;;;5036550;28;20041;-80
2023/06/03 11:25:05;;;;;;;1.02;0.40;;;20.80;82.00;;;;;;5037431;28;20033;-80
2023/06/03 11:27:30;;;;;;;;;;;20.60;81.80;;;;;;5036362;28;20045;-80
2023/06/03 11:29:57;;;;;;;;;;;20.70;81.00;;;;;;5037294;28;20334;-79
2023/06/03 11:32:30;;;;;;;4.68;0.40;;;20.70;84.40;;;;;;5032356;28;19920;-80
2023/06/03 11:34:59;;;;;;;1.65;0.40;;;20.90;81.40;;;;;;5034814;28;21020;-80
2023/06/03 11:37:40;;;;;;;1.38;0.57;;;21.00;81.80;;;;;;5037294;28;20059;-79
2023/06/03 11:40:08;;;;;;;3.40;0.30;;;20.80;79.00;;;;;;5034637;28;20049;-80
2023/06/03 11:42:51;;;;;;;2.13;0.50;;;20.70;80.80;;;;;;5038566;28;20043;-79
2023/06/03 11:45:17;;;;;;;7.78;0.52;;;20.80;82.10;;;;;;5037934;28;20063;-80
2023/06/03 11:47:59;;;;;;;0.95;0.40;;;20.80;81.30;;;;;;5038195;28;20041;-80
2023/06/03 11:50:26;;;;;;;2.65;0.45;;;20.70;81.00;;;;;;5034988;28;20061;-79
2023/06/03 11:52:53;;;;;;;3.13;0.50;;;20.70;79.40;;;;;;5038279;28;20091;-81
2023/06/03 11:55:32;;;;;;;2.88;0.50;;;20.70;81.00;;;;;;5034378;28;20559;-79
2023/06/03 11:58:11;;;;;;;3.00;0.30;;;20.60;79.90;;;;;;5040714;28;20033;-79
2023/06/03 12:00:40;;;;;;;4.32;0.60;;;20.60;81.00;;;;;;5039010;28;20295;-80
2023/06/03 12:03:13;;;;;;;0.88;0.40;;;20.70;80.90;;;;;;5038835;28;20064;-80
2023/06/03 12:05:52;;;;;;;4.90;0.50;;;20.60;80.50;;;;;;5040833;28;20049;-80
2023/06/03 12:08:17;;;;;;;3.20;0.30;;;20.30;80.40;;;;;;5036629;28;20033;-79
2023/06/03 12:10:43;;;;;;;3.03;0.43;;;20.80;82.60;;;;;;5037423;28;20045;-83
2023/06/03 12:13:09;;;;;;;2.58;0.40;;;21.00;82.20;;;;;;5036040;28;20065;-80
2023/06/03 12:15:36;;;;;;;4.28;0.73;;;21.10;81.00;;;;;;5033093;28;20080;-80
2023/06/03 12:18:05;;;;;;;182.45;13.55;;;21.10;83.50;;;;;;5033643;28;20049;-83
2023/06/03 12:20:30;;;;;;;3.10;0.60;;;21.10;81.90;;;;;;5030426;28;20528;-80
2023/06/03 12:23:00;;;;;;;2.85;0.50;;;21.00;80.70;;;;;;5037536;28;20033;-80
2023/06/03 12:25:26;;;;;;;8.82;0.73;;;21.00;81.30;;;;;;5031742;28;20050;-84
2023/06/03 12:27:52;;;;;;;15.52;0.90;;;21.00;78.80;;;;;;5031331;28;20052;-84
2023/06/03 12:30:34;;;;;;;4.40;0.88;;;21.00;82.20;;;;;;5035218;28;20155;-81
2023/06/03 12:33:00;;;;;;;1.65;0.40;;;21.20;83.80;;;;;;5031540;28;20045;-80
2023/06/03 12:35:28;;;;;;;3.80;0.50;;;21.20;81.70;;;;;;5036032;28;20073;-81
2023/06/03 12:38:05;;;;;;;3.88;1.17;;;21.30;82.80;;;;;;5034129;28;20045;-81
2023/06/03 12:40:31;;;;;;;2.08;0.50;;;21.40;82.70;;;;;;5028706;28;20050;-81
2023/06/03 12:42:58;;;;;;;2.60;0.50;;;21.50;82.40;;;;;;5034189;28;20044;-81
2023/06/03 12:45:25;;;;;;;2.05;0.50;;;21.70;83.10;;;;;;5037464;28;20392;-81
2023/06/03 12:47:51;;;;;;;5.22;0.70;;;21.80;83.50;;;;;;5030727;28;20128;-80
2023/06/03 12:50:18;;;;;;;2.55;0.45;;;21.80;84.20;;;;;;5034878;28;21246;-81
2023/06/03 12:52:44;;;;;;;3.40;0.50;;;21.80;83.80;;;;;;5037880;28;20037;-80
2023/06/03 12:55:14;;;;;;;0.85;0.30;;;21.80;85.00;;;;;;5035251;28;20538;-80
2023/06/03 12:57:41;;;;;;;8.60;0.85;;;21.90;82.70;;;;;;5034018;28;20391;-81
2023/06/03 13:00:15;;;;;;;2.78;0.70;;;21.80;80.20;;;;;;5036127;28;20128;-80